Observations for NEWCASTLE, United Kingdom (EGNT)

EGNT 260450Z 25005KT 5000 BR SCT006 14/14 Q1017 
EGNT 260420Z 26005KT 6000 BKN006 15/15 Q1018
EGNT 260350Z 25008KT 8000 NSC 15/15 Q1018   
EGNT 260250Z 23005KT 8000 NSC 14/14 Q1018   
EGNT 260220Z 23004KT CAVOK 14/14 Q1017  
EGNT 260150Z 24004KT CAVOK 15/14 Q1017  
EGNT 260120Z 24005KT CAVOK 15/14 Q1017  
EGNT 260050Z 23002KT CAVOK 16/15 Q1018  
EGNT 260020Z 22003KT CAVOK 16/15 Q1018  
EGNT 252350Z 24001KT CAVOK 16/15 Q1018  
EGNT 252320Z 24002KT CAVOK 16/15 Q1018  
EGNT 252250Z VRB01KT CAVOK 16/14 Q1018  
EGNT 252220Z 34002KT CAVOK 16/14 Q1018  
EGNT 252150Z 32005KT CAVOK 17/13 Q1018  
EGNT 252120Z 10002KT CAVOK 18/14 Q1018  
EGNT 252050Z 00000KT CAVOK 18/14 Q1018  
EGNT 252020Z VRB02KT CAVOK 19/14 Q1018  
EGNT 251950Z 10002KT CAVOK 20/14 Q1018  
EGNT 251920Z VRB02KT CAVOK 21/14 Q1017  
EGNT 251850Z VRB03KT CAVOK 22/14 Q1017  
EGNT 251820Z 13004KT 080V170 CAVOK 22/14 Q1017  
EGNT 251750Z 13006KT 080V180 CAVOK 23/13 Q1017  
EGNT 251720Z 13006KT 050V170 CAVOK 24/14 Q1017  
EGNT 251650Z 12006KT 070V180 CAVOK 24/14 Q1017  
EGNT 251620Z 12006KT 050V220 CAVOK 25/14 Q1018  
EGNT 251550Z 13006KT 070V220 CAVOK 25/16 Q1018  
EGNT 251520Z VRB07KT CAVOK 25/16 Q1018  
EGNT 251450Z 12007KT 060V170 CAVOK 26/15 Q1018  
EGNT 251420Z 12006KT 070V200 CAVOK 26/17 Q1018  
EGNT 251350Z 11007KT 070V190 CAVOK 26/16 Q1018  
EGNT 251320Z 12005KT 060V190 CAVOK 26/17 Q1018  
EGNT 251250Z 11006KT 070V190 CAVOK 26/17 Q1018  
EGNT 251220Z 12005KT 060V180 CAVOK 26/15 Q1018  
EGNT 251150Z 15005KT 080V230 CAVOK 26/15 Q1018  
EGNT 251120Z 15005KT 080V250 CAVOK 25/16 Q1018  
EGNT 251050Z VRB03KT CAVOK 25/16 Q1019  
EGNT 251020Z 14004KT 080V220 CAVOK 24/16 Q1019  
EGNT 250950Z 13004KT 060V220 CAVOK 23/16 Q1019  
EGNT 250920Z VRB02KT CAVOK 23/17 Q1019  
EGNT 250850Z VRB01KT CAVOK 22/17 Q1019  
EGNT 250820Z VRB01KT CAVOK 20/17 Q1019  
EGNT 250750Z VRB01KT CAVOK 19/18 Q1018  
EGNT 250720Z 00000KT CAVOK 17/17 Q1018  
EGNT 250650Z 28002KT CAVOK 15/15 Q1018  
EGNT 250620Z VRB01KT CAVOK 13/13 Q1018  
EGNT 250550Z 00000KT CAVOK 12/12 Q1018  
EGNT 250520Z 27001KT CAVOK 11/11 Q1018  
EGNT 250450Z VRB02KT CAVOK 12/12 Q1018  
EGNT 250420Z 00000KT CAVOK 11/11 Q1018